createdAt,value
2023-05-02T00:04:14.710Z,3.55
2023-05-02T00:09:17.513Z,3.50
2023-05-02T00:14:33.080Z,6.22
2023-05-02T00:19:31.769Z,4.88
2023-05-02T00:24:30.424Z,4.25
2023-05-02T00:29:29.102Z,5.95
2023-05-02T00:34:32.184Z,3.67
2023-05-02T00:39:30.942Z,3.95
2023-05-02T00:44:30.066Z,3.92
2023-05-02T00:49:29.221Z,4.15
2023-05-02T00:54:29.924Z,4.43
2023-05-02T00:59:29.551Z,8.45
2023-05-02T01:04:40.538Z,6.18
2023-05-02T01:09:53.673Z,5.93
2023-05-02T01:14:56.792Z,6.05
2023-05-02T01:20:00.056Z,3.70
2023-05-02T01:25:10.336Z,4.25
2023-05-02T01:30:13.425Z,6.70
2023-05-02T01:35:12.791Z,8.23
2023-05-02T01:40:13.380Z,5.78
2023-05-02T01:45:15.300Z,6.85
2023-05-02T01:50:17.950Z,6.53
2023-05-02T01:55:18.835Z,6.60
2023-05-02T02:00:20.852Z,7.25
2023-05-02T02:05:23.688Z,6.07
2023-05-02T02:10:24.203Z,6.60
2023-05-02T02:15:29.249Z,6.32
2023-05-02T02:20:29.590Z,6.32
2023-05-02T02:25:28.809Z,8.93
2023-05-02T02:30:28.989Z,7.40
2023-05-02T02:35:32.822Z,13.98
2023-05-02T02:40:36.143Z,8.48
2023-05-02T02:45:44.845Z,14.68
2023-05-02T02:50:53.881Z,11.32
2023-05-02T02:55:59.432Z,8.85
2023-05-02T03:01:02.776Z,9.13
2023-05-02T03:06:02.005Z,8.40
2023-05-02T03:11:01.096Z,14.70
2023-05-02T03:16:40.490Z,17.52
2023-05-02T03:21:46.238Z,15.35
2023-05-02T03:26:50.252Z,9.88
2023-05-02T03:31:55.090Z,12.88
2023-05-02T03:36:56.736Z,13.50
2023-05-02T03:41:55.457Z,15.15
2023-05-02T03:46:56.220Z,17.77
2023-05-02T03:51:57.429Z,11.73
2023-05-02T03:57:01.803Z,20.23
2023-05-02T04:02:03.004Z,18.35
2023-05-02T04:07:22.398Z,21.08
2023-05-02T04:12:28.735Z,31.80
2023-05-02T04:17:31.153Z,32.60
2023-05-02T04:22:31.491Z,21.63
2023-05-02T04:27:35.179Z,27.52
2023-05-02T04:32:35.084Z,23.88
2023-05-02T04:37:38.151Z,22.67
2023-05-02T04:42:37.628Z,31.55
2023-05-02T04:47:52.340Z,23.48
2023-05-02T04:52:52.757Z,22.50
2023-05-02T04:57:52.863Z,28.83
2023-05-02T05:02:52.389Z,32.08
2023-05-02T05:07:52.682Z,37.13
2023-05-02T05:12:53.604Z,34.10
2023-05-02T05:17:53.218Z,20.42
2023-05-02T05:22:53.665Z,32.25
2023-05-02T05:27:55.334Z,47.67
2023-05-02T05:32:54.949Z,28.17
2023-05-02T05:37:55.150Z,20.33
2023-05-02T05:42:54.009Z,23.05
2023-05-02T05:47:58.263Z,23.90
2023-05-02T05:53:01.502Z,34.40
2023-05-02T05:58:00.454Z,38.88
2023-05-02T06:02:59.372Z,33.22
2023-05-02T06:08:05.201Z,22.15
2023-05-02T06:13:06.402Z,37.17
2023-05-02T06:18:08.701Z,23.55
2023-05-02T06:23:09.066Z,37.03
2023-05-02T06:28:09.581Z,38.47
2023-05-02T06:33:08.464Z,40.83
2023-05-02T06:38:08.538Z,33.30
2023-05-02T06:43:07.428Z,39.25
2023-05-02T06:48:06.585Z,18.25
2023-05-02T06:53:06.018Z,11.27
2023-05-02T06:58:06.123Z,16.90
2023-05-02T07:03:05.426Z,23.02
2023-05-02T07:08:05.864Z,19.77
2023-05-02T07:13:06.068Z,14.57
2023-05-02T07:18:05.245Z,8.95
2023-05-02T07:23:04.033Z,22.45
2023-05-02T07:28:02.835Z,28.40
2023-05-02T07:33:03.173Z,6.60
2023-05-02T07:38:01.985Z,14.48
2023-05-02T07:43:02.876Z,10.88
2023-05-02T07:48:04.041Z,17.20
2023-05-02T07:53:03.510Z,12.65
2023-05-02T07:58:02.419Z,4.40
2023-05-02T08:03:02.732Z,5.43
2023-05-02T08:08:02.069Z,18.65
2023-05-02T08:13:00.837Z,9.98
2023-05-02T08:17:59.962Z,7.53
2023-05-02T08:23:00.605Z,10.80
2023-05-02T08:27:59.460Z,10.85
2023-05-02T08:32:58.245Z,14.32
2023-05-02T08:37:57.175Z,5.70
2023-05-02T08:42:57.579Z,10.68
2023-05-02T08:47:58.088Z,13.63
2023-05-02T08:52:58.818Z,12.38
2023-05-02T08:57:59.699Z,9.03
2023-05-02T09:03:07.843Z,13.40
2023-05-02T09:08:07.007Z,15.70
2023-05-02T09:13:38.012Z,5.88
2023-05-02T09:18:37.790Z,9.40
2023-05-02T09:23:38.339Z,9.57
2023-05-02T09:28:43.276Z,4.57
2023-05-02T09:33:42.549Z,13.18
2023-05-02T09:38:44.677Z,8.85
2023-05-02T09:43:45.337Z,9.88
2023-05-02T09:48:54.755Z,7.25
2023-05-02T09:53:53.998Z,8.75
2023-05-02T09:59:13.749Z,9.60
2023-05-02T10:04:16.571Z,3.33
2023-05-02T10:09:20.807Z,7.60
2023-05-02T10:14:23.105Z,18.00
2023-05-02T10:19:30.341Z,5.13
2023-05-02T10:24:30.020Z,21.10
2023-05-02T10:29:31.040Z,16.15
2023-05-02T10:34:33.332Z,10.65
2023-05-02T10:39:33.757Z,5.78
2023-05-02T10:44:37.751Z,19.80
2023-05-02T10:49:51.292Z,11.80
2023-05-02T10:54:52.221Z,8.57
2023-05-02T10:59:52.327Z,10.38
2023-05-02T11:05:02.066Z,12.63
2023-05-02T11:10:29.327Z,13.68
2023-05-02T11:16:00.226Z,8.50
2023-05-02T11:21:27.564Z,8.05
2023-05-02T11:26:26.682Z,16.92
2023-05-02T11:32:04.125Z,5.30
2023-05-02T11:37:12.557Z,9.25
2023-05-02T11:42:11.286Z,12.25
2023-05-02T11:47:10.556Z,26.87
2023-05-02T11:52:10.997Z,11.10
2023-05-02T11:57:09.855Z,5.95
2023-05-02T12:02:08.802Z,14.68
2023-05-02T12:12:08.114Z,9.73
2023-05-02T12:17:06.946Z,6.75
2023-05-02T12:22:07.890Z,7.18
2023-05-02T12:27:12.527Z,5.47
2023-05-02T12:32:11.547Z,20.90
2023-05-02T12:37:11.891Z,6.38
2023-05-02T12:42:12.999Z,19.40
2023-05-02T12:47:13.216Z,3.85
2023-05-02T12:52:11.926Z,8.63
2023-05-02T12:57:11.969Z,7.97
2023-05-02T13:02:10.685Z,8.40
2023-05-02T13:07:09.436Z,6.90
2023-05-02T13:12:08.547Z,10.30
2023-05-02T13:17:09.980Z,9.93
2023-05-02T13:22:08.876Z,8.73
2023-05-02T13:27:07.522Z,5.55
2023-05-02T13:32:06.308Z,10.10
2023-05-02T13:37:06.502Z,6.72
2023-05-02T13:42:06.492Z,5.05
2023-05-02T13:47:05.236Z,15.25
2023-05-02T13:52:04.448Z,6.82
2023-05-02T13:57:05.621Z,4.30
2023-05-02T14:02:04.840Z,10.88
2023-05-02T14:07:04.317Z,7.80
2023-05-02T14:12:08.403Z,5.35
2023-05-02T14:17:07.091Z,8.70
2023-05-02T14:22:05.996Z,10.90
2023-05-02T14:27:06.890Z,12.45
2023-05-02T14:32:07.318Z,27.67
2023-05-02T14:37:06.196Z,6.15
2023-05-02T14:42:08.916Z,9.68
2023-05-02T14:47:09.163Z,9.30
2023-05-02T14:52:10.177Z,10.65
2023-05-02T14:57:09.122Z,7.95
2023-05-02T15:02:09.279Z,14.80
2023-05-02T15:07:08.481Z,5.25
2023-05-02T15:17:08.653Z,9.70
2023-05-02T15:22:11.632Z,9.43
2023-05-02T15:27:11.311Z,7.40
2023-05-02T15:32:10.122Z,6.72
2023-05-02T15:37:10.272Z,6.70
2023-05-02T15:42:09.017Z,11.85
2023-05-02T15:47:08.540Z,5.27
2023-05-02T15:52:08.000Z,4.85
2023-05-02T15:57:08.232Z,10.23
2023-05-02T16:07:06.246Z,7.85
2023-05-02T16:12:07.104Z,10.07
2023-05-02T16:17:08.316Z,17.27
2023-05-02T16:22:07.061Z,6.85
2023-05-02T16:27:05.797Z,3.67
2023-05-02T16:32:04.509Z,5.05
2023-05-02T16:37:05.124Z,8.77
2023-05-02T16:42:03.894Z,3.13
2023-05-02T16:47:02.801Z,4.15
2023-05-02T16:52:01.562Z,4.47
2023-05-02T16:57:03.268Z,20.67
2023-05-02T17:02:02.463Z,5.00
2023-05-02T17:07:01.510Z,5.70
2023-05-02T17:12:02.946Z,6.18
2023-05-02T17:17:02.214Z,6.15
2023-05-02T17:22:01.633Z,8.52
2023-05-02T17:27:02.914Z,7.15
2023-05-02T17:32:01.980Z,6.10
2023-05-02T17:37:00.777Z,4.57
2023-05-02T17:41:59.606Z,11.50
2023-05-02T17:47:00.082Z,5.88
2023-05-02T17:51:59.007Z,5.65
2023-05-02T17:56:58.203Z,9.35
2023-05-02T18:01:57.398Z,7.03
2023-05-02T18:06:57.616Z,4.18
2023-05-02T18:11:57.071Z,4.93
2023-05-02T18:16:56.500Z,4.30
2023-05-02T18:21:55.155Z,5.22
2023-05-02T18:26:55.444Z,6.43
2023-05-02T18:31:54.371Z,5.97
2023-05-02T18:36:53.080Z,3.92
2023-05-02T18:41:51.714Z,5.15
2023-05-02T18:46:52.009Z,11.43
2023-05-02T18:51:50.832Z,5.82
2023-05-02T18:56:49.580Z,8.23
2023-05-02T19:01:49.314Z,7.20
2023-05-02T19:06:49.501Z,3.38
2023-05-02T19:11:48.294Z,5.10
2023-05-02T19:16:47.148Z,7.85
2023-05-02T19:21:50.772Z,8.00
2023-05-02T19:26:49.777Z,7.68
2023-05-02T19:31:48.741Z,3.47
2023-05-02T19:36:47.493Z,6.95
2023-05-02T19:41:50.389Z,4.00
2023-05-02T19:46:49.336Z,3.90
2023-05-02T19:51:49.374Z,4.38
2023-05-02T19:56:49.594Z,6.70
2023-05-02T20:01:48.720Z,10.57
2023-05-02T20:06:47.478Z,4.55
2023-05-02T20:11:46.172Z,5.00
2023-05-02T20:16:47.037Z,5.20
2023-05-02T20:21:45.825Z,3.75
2023-05-02T20:26:44.518Z,3.92
2023-05-02T20:31:43.517Z,6.18
2023-05-02T20:36:43.733Z,4.53
2023-05-02T20:41:42.474Z,2.38
2023-05-02T20:46:41.287Z,5.70
2023-05-02T20:51:40.083Z,7.25
2023-05-02T20:56:40.897Z,5.57
2023-05-02T21:01:39.888Z,5.43
2023-05-02T21:06:38.885Z,3.58
2023-05-02T21:11:37.624Z,5.25
2023-05-02T21:16:37.897Z,4.13
2023-05-02T21:21:36.559Z,3.60
2023-05-02T21:26:35.326Z,5.43
2023-05-02T21:31:34.252Z,7.68
2023-05-02T21:36:34.370Z,4.78
2023-05-02T21:41:33.068Z,4.45
2023-05-02T21:46:31.806Z,2.97
2023-05-02T21:51:30.749Z,3.95
2023-05-02T21:56:30.857Z,3.13
2023-05-02T22:01:29.709Z,7.38
2023-05-02T22:06:28.711Z,3.47
2023-05-02T22:11:31.523Z,3.22
2023-05-02T22:21:29.028Z,3.75
2023-05-02T22:26:27.800Z,6.65
2023-05-02T22:31:27.988Z,3.50
2023-05-02T22:36:27.847Z,7.13
2023-05-02T22:41:26.536Z,3.15
2023-05-02T22:46:25.287Z,3.63
2023-05-02T22:51:25.726Z,3.40
2023-05-02T22:56:24.638Z,6.88
2023-05-02T23:01:23.489Z,3.80
2023-05-02T23:06:22.289Z,7.13
2023-05-02T23:11:22.489Z,3.08
2023-05-02T23:16:21.344Z,2.88
2023-05-02T23:21:20.137Z,4.10
2023-05-02T23:26:18.947Z,5.45
2023-05-02T23:31:19.100Z,4.40
2023-05-02T23:36:18.152Z,4.68
2023-05-02T23:41:16.819Z,3.10
2023-05-02T23:46:15.521Z,4.20
2023-05-02T23:51:15.577Z,4.13
2023-05-02T23:56:14.328Z,6.43
